sensor_id;sensor_type;location;lat;lon;timestamp;P1;durP1;ratioP1;P2;durP2;ratioP2
78079;SDS011;67298;51.322;5.958;2024-03-25T00:02:40;17.2;;;10.7;;
78079;SDS011;67298;51.322;5.958;2024-03-25T00:07:20;14.8;;;9.5;;
78079;SDS011;67298;51.322;5.958;2024-03-25T00:11:59;19.4;;;11.7;;
78079;SDS011;67298;51.322;5.958;2024-03-25T00:16:39;18.3;;;11.4;;
78079;SDS011;67298;51.322;5.958;2024-03-25T00:21:18;19.8;;;12.0;;
78079;SDS011;67298;51.322;5.958;2024-03-25T00:25:58;19.6;;;11.9;;
78079;SDS011;67298;51.322;5.958;2024-03-25T00:30:37;16.7;;;10.5;;
78079;SDS011;67298;51.322;5.958;2024-03-25T00:35:17;17.9;;;11.4;;
78079;SDS011;67298;51.322;5.958;2024-03-25T00:39:56;17.2;;;11.5;;
78079;SDS011;67298;51.322;5.958;2024-03-25T00:44:36;12.0;;;7.2;;
78079;SDS011;67298;51.322;5.958;2024-03-25T00:49:15;16.7;;;9.9;;
78079;SDS011;67298;51.322;5.958;2024-03-25T00:53:55;15.1;;;9.1;;
78079;SDS011;67298;51.322;5.958;2024-03-25T00:58:35;17.5;;;10.8;;
78079;SDS011;67298;51.322;5.958;2024-03-25T01:03:14;18.3;;;9.8;;
78079;SDS011;67298;51.322;5.958;2024-03-25T01:07:54;13.2;;;8.7;;
78079;SDS011;67298;51.322;5.958;2024-03-25T01:12:33;17.4;;;11.0;;
78079;SDS011;67298;51.322;5.958;2024-03-25T01:17:12;16.1;;;11.3;;
78079;SDS011;67298;51.322;5.958;2024-03-25T01:21:52;18.4;;;11.7;;
78079;SDS011;67298;51.322;5.958;2024-03-25T01:26:31;17.5;;;11.2;;
78079;SDS011;67298;51.322;5.958;2024-03-25T01:31:11;20.2;;;11.2;;
78079;SDS011;67298;51.322;5.958;2024-03-25T01:35:52;20.6;;;12.1;;
78079;SDS011;67298;51.322;5.958;2024-03-25T01:40:32;19.6;;;11.4;;
78079;SDS011;67298;51.322;5.958;2024-03-25T01:45:11;15.4;;;9.2;;
78079;SDS011;67298;51.322;5.958;2024-03-25T01:49:50;20.3;;;11.7;;
78079;SDS011;67298;51.322;5.958;2024-03-25T01:54:30;21.3;;;12.1;;
78079;SDS011;67298;51.322;5.958;2024-03-25T01:59:09;21.7;;;13.1;;
78079;SDS011;67298;51.322;5.958;2024-03-25T02:03:48;22.4;;;11.7;;
78079;SDS011;67298;51.322;5.958;2024-03-25T02:08:28;19.8;;;10.8;;
78079;SDS011;67298;51.322;5.958;2024-03-25T02:13:07;22.6;;;12.9;;
78079;SDS011;67298;51.322;5.958;2024-03-25T02:17:47;21.7;;;12.5;;
78079;SDS011;67298;51.322;5.958;2024-03-25T02:22:26;16.6;;;8.5;;
78079;SDS011;67298;51.322;5.958;2024-03-25T02:27:06;23.3;;;12.8;;
78079;SDS011;67298;51.322;5.958;2024-03-25T02:31:45;19.6;;;11.7;;
78079;SDS011;67298;51.322;5.958;2024-03-25T02:36:24;21.0;;;12.5;;
78079;SDS011;67298;51.322;5.958;2024-03-25T02:41:04;23.4;;;12.0;;
78079;SDS011;67298;51.322;5.958;2024-03-25T02:45:44;16.5;;;11.0;;
78079;SDS011;67298;51.322;5.958;2024-03-25T02:50:26;23.3;;;14.1;;
78079;SDS011;67298;51.322;5.958;2024-03-25T02:55:07;20.1;;;12.0;;
78079;SDS011;67298;51.322;5.958;2024-03-25T02:59:53;24.1;;;13.9;;
78079;SDS011;67298;51.322;5.958;2024-03-25T03:04:32;20.8;;;12.8;;
78079;SDS011;67298;51.322;5.958;2024-03-25T03:09:12;24.5;;;12.2;;
78079;SDS011;67298;51.322;5.958;2024-03-25T03:13:52;22.1;;;13.2;;
78079;SDS011;67298;51.322;5.958;2024-03-25T03:18:31;20.7;;;12.4;;
78079;SDS011;67298;51.322;5.958;2024-03-25T03:23:10;15.5;;;9.3;;
78079;SDS011;67298;51.322;5.958;2024-03-25T03:27:51;21.3;;;12.3;;
78079;SDS011;67298;51.322;5.958;2024-03-25T03:32:30;17.4;;;11.9;;
78079;SDS011;67298;51.322;5.958;2024-03-25T03:37:10;20.5;;;12.8;;
78079;SDS011;67298;51.322;5.958;2024-03-25T03:41:49;21.7;;;13.7;;
78079;SDS011;67298;51.322;5.958;2024-03-25T03:46:29;21.8;;;12.1;;
78079;SDS011;67298;51.322;5.958;2024-03-25T03:51:08;23.0;;;13.8;;
78079;SDS011;67298;51.322;5.958;2024-03-25T03:55:47;22.4;;;13.3;;
78079;SDS011;67298;51.322;5.958;2024-03-25T04:00:27;23.7;;;13.9;;
78079;SDS011;67298;51.322;5.958;2024-03-25T04:05:06;20.7;;;12.3;;
78079;SDS011;67298;51.322;5.958;2024-03-25T04:09:46;20.1;;;12.4;;
78079;SDS011;67298;51.322;5.958;2024-03-25T04:14:25;21.6;;;12.8;;
78079;SDS011;67298;51.322;5.958;2024-03-25T04:19:04;21.9;;;12.6;;
78079;SDS011;67298;51.322;5.958;2024-03-25T04:23:44;17.6;;;12.2;;
78079;SDS011;67298;51.322;5.958;2024-03-25T04:28:23;21.3;;;12.9;;
78079;SDS011;67298;51.322;5.958;2024-03-25T04:33:02;19.3;;;12.1;;
78079;SDS011;67298;51.322;5.958;2024-03-25T04:37:42;21.4;;;13.0;;
78079;SDS011;67298;51.322;5.958;2024-03-25T04:42:21;20.7;;;11.7;;
78079;SDS011;67298;51.322;5.958;2024-03-25T04:47:01;19.0;;;11.4;;
78079;SDS011;67298;51.322;5.958;2024-03-25T04:51:40;22.4;;;13.0;;
78079;SDS011;67298;51.322;5.958;2024-03-25T04:56:19;18.9;;;11.7;;
78079;SDS011;67298;51.322;5.958;2024-03-25T05:00:59;4.5;;;2.5;;
78079;SDS011;67298;51.322;5.958;2024-03-25T05:05:46;16.5;;;10.4;;
78079;SDS011;67298;51.322;5.958;2024-03-25T05:10:26;14.3;;;9.2;;
78079;SDS011;67298;51.322;5.958;2024-03-25T05:15:05;16.0;;;10.7;;
78079;SDS011;67298;51.322;5.958;2024-03-25T05:19:44;15.9;;;10.0;;
78079;SDS011;67298;51.322;5.958;2024-03-25T05:24:24;10.1;;;7.2;;
78079;SDS011;67298;51.322;5.958;2024-03-25T05:29:03;14.6;;;9.6;;
78079;SDS011;67298;51.322;5.958;2024-03-25T05:33:43;15.8;;;10.1;;
78079;SDS011;67298;51.322;5.958;2024-03-25T05:38:22;15.7;;;9.9;;
78079;SDS011;67298;51.322;5.958;2024-03-25T05:43:02;13.7;;;8.9;;
78079;SDS011;67298;51.322;5.958;2024-03-25T05:47:41;11.4;;;7.6;;
78079;SDS011;67298;51.322;5.958;2024-03-25T05:52:20;14.5;;;9.0;;
78079;SDS011;67298;51.322;5.958;2024-03-25T05:57:00;14.2;;;7.9;;
78079;SDS011;67298;51.322;5.958;2024-03-25T06:01:39;6.2;;;5.6;;
78079;SDS011;67298;51.322;5.958;2024-03-25T06:06:19;15.9;;;9.1;;
78079;SDS011;67298;51.322;5.958;2024-03-25T06:10:58;13.4;;;9.2;;
78079;SDS011;67298;51.322;5.958;2024-03-25T06:15:37;13.6;;;9.2;;
78079;SDS011;67298;51.322;5.958;2024-03-25T06:20:22;14.6;;;9.5;;
78079;SDS011;67298;51.322;5.958;2024-03-25T06:25:01;16.6;;;9.0;;
78079;SDS011;67298;51.322;5.958;2024-03-25T06:29:41;14.8;;;9.7;;
78079;SDS011;67298;51.322;5.958;2024-03-25T06:34:21;12.0;;;8.6;;
78079;SDS011;67298;51.322;5.958;2024-03-25T06:39:01;14.3;;;10.1;;
78079;SDS011;67298;51.322;5.958;2024-03-25T06:43:40;15.1;;;9.1;;
78079;SDS011;67298;51.322;5.958;2024-03-25T06:48:20;17.1;;;11.0;;
78079;SDS011;67298;51.322;5.958;2024-03-25T06:52:59;17.5;;;11.4;;
78079;SDS011;67298;51.322;5.958;2024-03-25T06:57:39;17.6;;;10.6;;
78079;SDS011;67298;51.322;5.958;2024-03-25T07:02:18;19.2;;;9.4;;
78079;SDS011;67298;51.322;5.958;2024-03-25T07:06:58;18.2;;;11.3;;
78079;SDS011;67298;51.322;5.958;2024-03-25T07:11:37;17.8;;;11.1;;
78079;SDS011;67298;51.322;5.958;2024-03-25T07:16:17;20.8;;;12.8;;
78079;SDS011;67298;51.322;5.958;2024-03-25T07:20:56;17.8;;;12.4;;
78079;SDS011;67298;51.322;5.958;2024-03-25T07:25:36;21.1;;;12.4;;
78079;SDS011;67298;51.322;5.958;2024-03-25T07:30:15;20.4;;;13.0;;
78079;SDS011;67298;51.322;5.958;2024-03-25T07:34:54;19.6;;;12.0;;
78079;SDS011;67298;51.322;5.958;2024-03-25T07:39:34;13.7;;;7.5;;
78079;SDS011;67298;51.322;5.958;2024-03-25T07:44:13;19.0;;;13.2;;
78079;SDS011;67298;51.322;5.958;2024-03-25T07:48:53;20.9;;;12.8;;
78079;SDS011;67298;51.322;5.958;2024-03-25T07:53:32;19.7;;;13.2;;
78079;SDS011;67298;51.322;5.958;2024-03-25T07:58:12;20.6;;;13.6;;
78079;SDS011;67298;51.322;5.958;2024-03-25T08:02:52;17.1;;;12.6;;
78079;SDS011;67298;51.322;5.958;2024-03-25T08:07:31;19.8;;;14.2;;
78079;SDS011;67298;51.322;5.958;2024-03-25T08:12:11;19.4;;;13.8;;
78079;SDS011;67298;51.322;5.958;2024-03-25T08:16:50;20.4;;;15.8;;
78079;SDS011;67298;51.322;5.958;2024-03-25T08:21:29;22.6;;;15.3;;
78079;SDS011;67298;51.322;5.958;2024-03-25T08:26:09;18.4;;;12.8;;
78079;SDS011;67298;51.322;5.958;2024-03-25T08:30:48;22.1;;;15.4;;
78079;SDS011;67298;51.322;5.958;2024-03-25T08:35:28;23.2;;;15.1;;
78079;SDS011;67298;51.322;5.958;2024-03-25T08:40:07;20.6;;;14.2;;
78079;SDS011;67298;51.322;5.958;2024-03-25T08:44:46;22.2;;;15.4;;
78079;SDS011;67298;51.322;5.958;2024-03-25T08:49:26;21.8;;;14.4;;
78079;SDS011;67298;51.322;5.958;2024-03-25T08:54:05;23.9;;;16.4;;
78079;SDS011;67298;51.322;5.958;2024-03-25T08:58:45;24.1;;;15.9;;
78079;SDS011;67298;51.322;5.958;2024-03-25T09:03:24;23.8;;;15.0;;
78079;SDS011;67298;51.322;5.958;2024-03-25T09:08:03;24.9;;;16.4;;
78079;SDS011;67298;51.322;5.958;2024-03-25T09:12:43;24.8;;;15.2;;
78079;SDS011;67298;51.322;5.958;2024-03-25T09:17:22;24.7;;;16.3;;
78079;SDS011;67298;51.322;5.958;2024-03-25T09:22:01;20.8;;;14.2;;
78079;SDS011;67298;51.322;5.958;2024-03-25T09:26:41;21.5;;;13.7;;
78079;SDS011;67298;51.322;5.958;2024-03-25T09:31:20;23.1;;;15.1;;
78079;SDS011;67298;51.322;5.958;2024-03-25T09:36:00;23.4;;;16.0;;
78079;SDS011;67298;51.322;5.958;2024-03-25T09:40:39;21.3;;;12.7;;
78079;SDS011;67298;51.322;5.958;2024-03-25T09:45:19;22.6;;;15.7;;
78079;SDS011;67298;51.322;5.958;2024-03-25T09:49:58;23.4;;;15.8;;
78079;SDS011;67298;51.322;5.958;2024-03-25T09:54:38;24.1;;;16.0;;
78079;SDS011;67298;51.322;5.958;2024-03-25T09:59:17;24.7;;;15.3;;
78079;SDS011;67298;51.322;5.958;2024-03-25T10:03:56;25.2;;;14.8;;
78079;SDS011;67298;51.322;5.958;2024-03-25T10:08:36;27.7;;;16.7;;
78079;SDS011;67298;51.322;5.958;2024-03-25T10:13:15;26.9;;;17.6;;
78079;SDS011;67298;51.322;5.958;2024-03-25T10:17:55;19.4;;;12.8;;
78079;SDS011;67298;51.322;5.958;2024-03-25T10:22:34;27.9;;;18.0;;
78079;SDS011;67298;51.322;5.958;2024-03-25T10:27:14;28.3;;;17.4;;
78079;SDS011;67298;51.322;5.958;2024-03-25T10:31:53;32.2;;;19.9;;
78079;SDS011;67298;51.322;5.958;2024-03-25T10:36:32;31.0;;;20.2;;
78079;SDS011;67298;51.322;5.958;2024-03-25T10:41:12;28.1;;;20.0;;
78079;SDS011;67298;51.322;5.958;2024-03-25T10:45:51;34.6;;;22.3;;
78079;SDS011;67298;51.322;5.958;2024-03-25T10:50:31;31.9;;;19.9;;
78079;SDS011;67298;51.322;5.958;2024-03-25T10:55:11;36.3;;;22.8;;
78079;SDS011;67298;51.322;5.958;2024-03-25T10:59:50;35.5;;;20.8;;
78079;SDS011;67298;51.322;5.958;2024-03-25T11:04:30;38.8;;;23.9;;
78079;SDS011;67298;51.322;5.958;2024-03-25T11:09:17;35.2;;;22.7;;
78079;SDS011;67298;51.322;5.958;2024-03-25T11:13:57;36.0;;;21.8;;
78079;SDS011;67298;51.322;5.958;2024-03-25T11:18:36;19.2;;;14.5;;
78079;SDS011;67298;51.322;5.958;2024-03-25T11:23:16;38.2;;;23.6;;
78079;SDS011;67298;51.322;5.958;2024-03-25T11:27:55;38.4;;;23.4;;
78079;SDS011;67298;51.322;5.958;2024-03-25T11:32:35;44.0;;;25.7;;
78079;SDS011;67298;51.322;5.958;2024-03-25T11:37:14;43.9;;;24.3;;
78079;SDS011;67298;51.322;5.958;2024-03-25T11:41:54;40.7;;;24.3;;
78079;SDS011;67298;51.322;5.958;2024-03-25T11:46:34;40.9;;;23.8;;
78079;SDS011;67298;51.322;5.958;2024-03-25T11:51:14;42.6;;;22.8;;
78079;SDS011;67298;51.322;5.958;2024-03-25T11:55:54;46.5;;;25.2;;
78079;SDS011;67298;51.322;5.958;2024-03-25T12:00:33;45.9;;;25.7;;
78079;SDS011;67298;51.322;5.958;2024-03-25T12:05:13;37.6;;;21.6;;
78079;SDS011;67298;51.322;5.958;2024-03-25T12:09:53;40.2;;;24.1;;
78079;SDS011;67298;51.322;5.958;2024-03-25T12:14:36;40.8;;;23.1;;
78079;SDS011;67298;51.322;5.958;2024-03-25T12:19:16;30.3;;;16.8;;
78079;SDS011;67298;51.322;5.958;2024-03-25T12:23:58;41.4;;;23.2;;
78079;SDS011;67298;51.322;5.958;2024-03-25T12:28:39;42.9;;;25.1;;
78079;SDS011;67298;51.322;5.958;2024-03-25T12:33:19;44.8;;;25.1;;
78079;SDS011;67298;51.322;5.958;2024-03-25T12:37:58;41.8;;;22.9;;
78079;SDS011;67298;51.322;5.958;2024-03-25T12:42:38;40.7;;;22.8;;
78079;SDS011;67298;51.322;5.958;2024-03-25T12:47:18;44.4;;;24.1;;
78079;SDS011;67298;51.322;5.958;2024-03-25T12:51:57;37.5;;;21.8;;
78079;SDS011;67298;51.322;5.958;2024-03-25T12:56:39;23.7;;;14.0;;
78079;SDS011;67298;51.322;5.958;2024-03-25T13:01:18;38.4;;;22.7;;
78079;SDS011;67298;51.322;5.958;2024-03-25T13:05:58;40.2;;;22.8;;
78079;SDS011;67298;51.322;5.958;2024-03-25T13:10:37;40.9;;;23.8;;
78079;SDS011;67298;51.322;5.958;2024-03-25T13:15:17;38.2;;;21.6;;
78079;SDS011;67298;51.322;5.958;2024-03-25T13:19:56;32.1;;;17.3;;
78079;SDS011;67298;51.322;5.958;2024-03-25T13:24:37;39.3;;;22.4;;
78079;SDS011;67298;51.322;5.958;2024-03-25T13:29:21;35.6;;;19.8;;
78079;SDS011;67298;51.322;5.958;2024-03-25T13:34:00;37.4;;;22.0;;
78079;SDS011;67298;51.322;5.958;2024-03-25T13:38:42;37.0;;;20.1;;
78079;SDS011;67298;51.322;5.958;2024-03-25T13:43:27;32.0;;;20.7;;
78079;SDS011;67298;51.322;5.958;2024-03-25T13:48:07;35.8;;;21.7;;
78079;SDS011;67298;51.322;5.958;2024-03-25T13:52:46;35.2;;;20.1;;
78079;SDS011;67298;51.322;5.958;2024-03-25T13:57:26;40.3;;;15.7;;
78079;SDS011;67298;51.322;5.958;2024-03-25T14:02:05;35.4;;;19.8;;
78079;SDS011;67298;51.322;5.958;2024-03-25T14:06:45;30.7;;;18.5;;
78079;SDS011;67298;51.322;5.958;2024-03-25T14:11:24;35.4;;;20.4;;
78079;SDS011;67298;51.322;5.958;2024-03-25T14:16:04;28.5;;;18.4;;
78079;SDS011;67298;51.322;5.958;2024-03-25T14:20:43;22.5;;;15.3;;
78079;SDS011;67298;51.322;5.958;2024-03-25T14:25:23;27.8;;;17.0;;
78079;SDS011;67298;51.322;5.958;2024-03-25T14:30:02;28.3;;;15.8;;
78079;SDS011;67298;51.322;5.958;2024-03-25T14:34:42;29.7;;;17.9;;
78079;SDS011;67298;51.322;5.958;2024-03-25T14:39:21;25.7;;;16.3;;
78079;SDS011;67298;51.322;5.958;2024-03-25T14:44:01;19.5;;;11.7;;
78079;SDS011;67298;51.322;5.958;2024-03-25T14:48:40;23.8;;;16.4;;
78079;SDS011;67298;51.322;5.958;2024-03-25T14:53:20;20.7;;;13.1;;
78079;SDS011;67298;51.322;5.958;2024-03-25T14:57:59;15.3;;;12.5;;
78079;SDS011;67298;51.322;5.958;2024-03-25T15:02:40;21.5;;;14.7;;
78079;SDS011;67298;51.322;5.958;2024-03-25T15:07:19;20.4;;;12.7;;
78079;SDS011;67298;51.322;5.958;2024-03-25T15:11:59;22.9;;;14.1;;
78079;SDS011;67298;51.322;5.958;2024-03-25T15:16:38;21.3;;;14.0;;
78079;SDS011;67298;51.322;5.958;2024-03-25T15:21:18;15.0;;;11.1;;
78079;SDS011;67298;51.322;5.958;2024-03-25T15:25:57;16.8;;;11.7;;
78079;SDS011;67298;51.322;5.958;2024-03-25T15:30:37;17.1;;;11.7;;
78079;SDS011;67298;51.322;5.958;2024-03-25T15:35:16;9.8;;;5.1;;
78079;SDS011;67298;51.322;5.958;2024-03-25T15:39:55;17.3;;;11.4;;
78079;SDS011;67298;51.322;5.958;2024-03-25T15:44:35;14.4;;;10.8;;
78079;SDS011;67298;51.322;5.958;2024-03-25T15:49:14;15.2;;;11.2;;
78079;SDS011;67298;51.322;5.958;2024-03-25T15:53:54;17.4;;;11.9;;
78079;SDS011;67298;51.322;5.958;2024-03-25T15:58:33;15.5;;;9.2;;
78079;SDS011;67298;51.322;5.958;2024-03-25T16:03:13;18.6;;;12.0;;
78079;SDS011;67298;51.322;5.958;2024-03-25T16:07:52;19.1;;;11.9;;
78079;SDS011;67298;51.322;5.958;2024-03-25T16:12:31;19.5;;;12.3;;
78079;SDS011;67298;51.322;5.958;2024-03-25T16:17:11;18.3;;;11.5;;
78079;SDS011;67298;51.322;5.958;2024-03-25T16:21:50;15.1;;;9.8;;
78079;SDS011;67298;51.322;5.958;2024-03-25T16:26:30;17.8;;;11.2;;
78079;SDS011;67298;51.322;5.958;2024-03-25T16:31:09;18.8;;;10.6;;
78079;SDS011;67298;51.322;5.958;2024-03-25T16:35:48;14.1;;;9.1;;
78079;SDS011;67298;51.322;5.958;2024-03-25T16:40:28;16.8;;;11.0;;
78079;SDS011;67298;51.322;5.958;2024-03-25T16:45:07;14.7;;;10.2;;
78079;SDS011;67298;51.322;5.958;2024-03-25T16:49:47;16.4;;;11.2;;
78079;SDS011;67298;51.322;5.958;2024-03-25T16:54:26;14.4;;;9.9;;
78079;SDS011;67298;51.322;5.958;2024-03-25T16:59:05;12.7;;;10.0;;
78079;SDS011;67298;51.322;5.958;2024-03-25T17:03:45;13.1;;;10.3;;
78079;SDS011;67298;51.322;5.958;2024-03-25T17:08:24;16.9;;;9.9;;
78079;SDS011;67298;51.322;5.958;2024-03-25T17:13:04;17.8;;;10.8;;
78079;SDS011;67298;51.322;5.958;2024-03-25T17:17:43;15.0;;;10.0;;
78079;SDS011;67298;51.322;5.958;2024-03-25T17:22:22;19.0;;;11.1;;
78079;SDS011;67298;51.322;5.958;2024-03-25T17:27:02;19.0;;;11.3;;
78079;SDS011;67298;51.322;5.958;2024-03-25T17:31:41;16.4;;;10.5;;
78079;SDS011;67298;51.322;5.958;2024-03-25T17:36:21;13.2;;;10.1;;
78079;SDS011;67298;51.322;5.958;2024-03-25T17:41:00;16.8;;;11.6;;
78079;SDS011;67298;51.322;5.958;2024-03-25T17:45:39;16.8;;;11.1;;
78079;SDS011;67298;51.322;5.958;2024-03-25T17:50:19;18.5;;;12.8;;
78079;SDS011;67298;51.322;5.958;2024-03-25T17:54:58;19.0;;;11.6;;
78079;SDS011;67298;51.322;5.958;2024-03-25T17:59:38;15.0;;;11.1;;
78079;SDS011;67298;51.322;5.958;2024-03-25T18:04:18;18.2;;;12.3;;
78079;SDS011;67298;51.322;5.958;2024-03-25T18:08:57;18.3;;;11.4;;
78079;SDS011;67298;51.322;5.958;2024-03-25T18:13:36;8.2;;;7.3;;
78079;SDS011;67298;51.322;5.958;2024-03-25T18:18:16;18.5;;;12.2;;
78079;SDS011;67298;51.322;5.958;2024-03-25T18:22:55;19.9;;;12.7;;
78079;SDS011;67298;51.322;5.958;2024-03-25T18:27:35;20.2;;;12.5;;
78079;SDS011;67298;51.322;5.958;2024-03-25T18:32:14;21.3;;;13.5;;
78079;SDS011;67298;51.322;5.958;2024-03-25T18:36:54;13.9;;;10.7;;
78079;SDS011;67298;51.322;5.958;2024-03-25T18:41:33;21.4;;;13.4;;
78079;SDS011;67298;51.322;5.958;2024-03-25T18:46:12;24.2;;;12.7;;
78079;SDS011;67298;51.322;5.958;2024-03-25T18:50:52;23.9;;;14.1;;
78079;SDS011;67298;51.322;5.958;2024-03-25T18:55:32;20.7;;;12.1;;
78079;SDS011;67298;51.322;5.958;2024-03-25T19:00:11;19.3;;;10.3;;
78079;SDS011;67298;51.322;5.958;2024-03-25T19:04:51;19.0;;;11.1;;
78079;SDS011;67298;51.322;5.958;2024-03-25T19:09:30;18.7;;;10.4;;
78079;SDS011;67298;51.322;5.958;2024-03-25T19:14:10;18.4;;;8.4;;
78079;SDS011;67298;51.322;5.958;2024-03-25T19:18:49;17.6;;;10.7;;
78079;SDS011;67298;51.322;5.958;2024-03-25T19:23:28;16.4;;;9.8;;
78079;SDS011;67298;51.322;5.958;2024-03-25T19:28:08;17.2;;;10.5;;
78079;SDS011;67298;51.322;5.958;2024-03-25T19:32:47;14.5;;;9.0;;
78079;SDS011;67298;51.322;5.958;2024-03-25T19:37:27;12.2;;;8.4;;
78079;SDS011;67298;51.322;5.958;2024-03-25T19:42:06;13.1;;;8.7;;
78079;SDS011;67298;51.322;5.958;2024-03-25T19:46:45;10.3;;;8.5;;
78079;SDS011;67298;51.322;5.958;2024-03-25T19:51:25;11.9;;;8.7;;
78079;SDS011;67298;51.322;5.958;2024-03-25T19:56:04;12.7;;;8.4;;
78079;SDS011;67298;51.322;5.958;2024-03-25T20:00:44;14.0;;;8.7;;
78079;SDS011;67298;51.322;5.958;2024-03-25T20:05:23;13.3;;;8.6;;
78079;SDS011;67298;51.322;5.958;2024-03-25T20:10:03;11.7;;;8.2;;
78079;SDS011;67298;51.322;5.958;2024-03-25T20:14:42;10.7;;;7.5;;
78079;SDS011;67298;51.322;5.958;2024-03-25T20:19:22;12.8;;;8.2;;
78079;SDS011;67298;51.322;5.958;2024-03-25T20:24:01;10.8;;;7.7;;
78079;SDS011;67298;51.322;5.958;2024-03-25T20:28:40;12.1;;;8.3;;
78079;SDS011;67298;51.322;5.958;2024-03-25T20:33:20;11.8;;;7.9;;
78079;SDS011;67298;51.322;5.958;2024-03-25T20:37:59;14.4;;;9.2;;
78079;SDS011;67298;51.322;5.958;2024-03-25T20:42:39;12.8;;;8.6;;
78079;SDS011;67298;51.322;5.958;2024-03-25T20:47:18;13.3;;;9.1;;
78079;SDS011;67298;51.322;5.958;2024-03-25T20:51:57;15.3;;;4.1;;
78079;SDS011;67298;51.322;5.958;2024-03-25T20:56:37;15.3;;;9.3;;
78079;SDS011;67298;51.322;5.958;2024-03-25T21:01:16;16.5;;;9.0;;
78079;SDS011;67298;51.322;5.958;2024-03-25T21:05:56;15.5;;;9.8;;
78079;SDS011;67298;51.322;5.958;2024-03-25T21:10:35;13.7;;;10.3;;
78079;SDS011;67298;51.322;5.958;2024-03-25T21:15:15;15.9;;;10.4;;
78079;SDS011;67298;51.322;5.958;2024-03-25T21:19:54;16.7;;;10.3;;
78079;SDS011;67298;51.322;5.958;2024-03-25T21:24:33;18.0;;;10.3;;
78079;SDS011;67298;51.322;5.958;2024-03-25T21:29:13;19.1;;;11.4;;
78079;SDS011;67298;51.322;5.958;2024-03-25T21:33:52;18.0;;;10.3;;
78079;SDS011;67298;51.322;5.958;2024-03-25T21:38:32;18.3;;;9.2;;
78079;SDS011;67298;51.322;5.958;2024-03-25T21:43:11;18.7;;;10.8;;
78079;SDS011;67298;51.322;5.958;2024-03-25T21:47:50;16.5;;;10.2;;
78079;SDS011;67298;51.322;5.958;2024-03-25T21:52:30;26.7;;;10.3;;
78079;SDS011;67298;51.322;5.958;2024-03-25T21:57:09;20.4;;;11.5;;
78079;SDS011;67298;51.322;5.958;2024-03-25T22:01:49;21.5;;;10.9;;
78079;SDS011;67298;51.322;5.958;2024-03-25T22:06:28;21.1;;;12.4;;
78079;SDS011;67298;51.322;5.958;2024-03-25T22:11:08;16.4;;;10.6;;
78079;SDS011;67298;51.322;5.958;2024-03-25T22:15:47;20.9;;;10.5;;
78079;SDS011;67298;51.322;5.958;2024-03-25T22:20:26;22.9;;;11.3;;
78079;SDS011;67298;51.322;5.958;2024-03-25T22:25:06;23.0;;;11.0;;
78079;SDS011;67298;51.322;5.958;2024-03-25T22:29:45;21.9;;;11.7;;
78079;SDS011;67298;51.322;5.958;2024-03-25T22:34:25;23.2;;;11.7;;
78079;SDS011;67298;51.322;5.958;2024-03-25T22:39:04;20.5;;;9.4;;
78079;SDS011;67298;51.322;5.958;2024-03-25T22:43:43;21.2;;;11.5;;
78079;SDS011;67298;51.322;5.958;2024-03-25T22:48:23;19.6;;;10.6;;
78079;SDS011;67298;51.322;5.958;2024-03-25T22:53:02;16.2;;;9.5;;
78079;SDS011;67298;51.322;5.958;2024-03-25T22:57:42;19.7;;;11.3;;
78079;SDS011;67298;51.322;5.958;2024-03-25T23:02:21;17.2;;;10.9;;
78079;SDS011;67298;51.322;5.958;2024-03-25T23:07:01;19.5;;;11.8;;
78079;SDS011;67298;51.322;5.958;2024-03-25T23:11:40;17.6;;;11.0;;
78079;SDS011;67298;51.322;5.958;2024-03-25T23:16:19;19.1;;;11.3;;
78079;SDS011;67298;51.322;5.958;2024-03-25T23:20:59;19.5;;;11.8;;
78079;SDS011;67298;51.322;5.958;2024-03-25T23:25:38;18.6;;;10.1;;
78079;SDS011;67298;51.322;5.958;2024-03-25T23:30:18;11.5;;;9.8;;
78079;SDS011;67298;51.322;5.958;2024-03-25T23:34:57;21.6;;;12.4;;
78079;SDS011;67298;51.322;5.958;2024-03-25T23:39:37;20.0;;;12.3;;
78079;SDS011;67298;51.322;5.958;2024-03-25T23:44:16;21.0;;;12.0;;
78079;SDS011;67298;51.322;5.958;2024-03-25T23:48:56;23.6;;;11.6;;
78079;SDS011;67298;51.322;5.958;2024-03-25T23:53:35;17.5;;;11.4;;
78079;SDS011;67298;51.322;5.958;2024-03-25T23:58:14;23.0;;;12.4;;
